Prairie City, OR

10:32 PM PST on March 05, 2015 (GMT -0800)
Burns Municipal | Change Station
CLOSE
Current Station
Airport
Location: Burns,
Elevation: 4170 ft
Nearby Weather Stations

Elev 4170 ft 43.60 °N, 118.96 °W | Updated 39 minutes ago

Clear
Clear
31 °F
Feels Like 25 °F
N
6
Wind Variable Wind from WSW

Today
High -- | Low -- °F
--% Chance of Precip.
Yesterday
High -- | Low -- °F
Precip. -- in
6:25 AM 5:47 PM
Full, 100% visible
Pressure 30.42 in
Visibility 10.0 miles
Clouds Clear
Windchill 25 °F
Dew Point 20 °F
Humidity 64%
Rainfall 0.00 in
Snow Depth Not available.
UV 0 out of 12
Pollen 2.50 out of 12
Air Quality Not available.
Flu Activity Not available.
METAR KBNO 060553Z AUTO 25005KT 10SM CLR M01/M07 A3037 RMK AO2 SLP300 T10061067 10150 21011 53013 PWINO FZRANO

More Conditions Fewer Conditions

Pressure 30.42 in
Visibility 10.0 miles
Clouds Clear
Windchill 25 °F
Dew Point 20 °F
Humidity 64%
Rainfall 0.00 in
Snow Depth Not available.
UV 0 out of 12
Pollen 2.50 out of 12
Air Quality Not available.
Flu Activity Not available.
METAR KBNO 060553Z AUTO 25005KT 10SM CLR M01/M07 A3037 RMK AO2 SLP300 T10061067 10150 21011 53013 PWINO FZRANO

More Conditions Fewer Conditions

10-Day Weather Forecast

Almanac

Astronomy

Mar. 05, 2015 Rise Set
Actual Time
Civil Twilight
Nautical Twilight
Astronomical Twilight
Moon
Length of Visible Light
Length of Day
Tomorrow will be .
, % of the Moon is Illuminated

Today's Extremes

State Highs State Lows

Community

WunderPhotos

Upload Photos

1,803,195 photos uploaded!

WunderBlogs® & News

Nearby

Air Quality

  Air Quality AQ Index Pollutant
Not available.

Snow Depth

Station Depth Elevation

Earthquake Activity

City Distance Mag. Time & Date
Minimum magnitude displayed is 2.5.

Coastal Water Temperatures

Place Temperature

Nearby Weather Stations